Time;durP1;ratioP1;P1;durP2;ratioP2;P2;SDS_P1;SDS_P2;PMS_P1;PMS_P2;Temp;Humidity;BMP_temperature;BMP_pressure;BME280_temperature;BME280_humidity;BME280_pressure;Samples;Min_cycle;Max_cycle;Signal;HPM_P1;HPM_P2
2023/05/13 00:01:58;;;;;;;;;;;;;;;23.22;50.76;97376.73;619628;229;66800;-60
2023/05/13 00:04:26;;;;;;;;;;;;;;;23.22;49.90;97378.61;619503;229;65167;-60
2023/05/13 00:06:53;;;;;;;;;;;;;;;23.20;50.04;97381.55;619542;229;64892;-60
2023/05/13 00:09:21;;;;;;;;;;;;;;;23.21;49.44;97382.34;619482;229;65325;-60
2023/05/13 00:11:48;;;;;;;;;;;;;;;23.20;48.76;97378.08;621738;227;62899;-60
2023/05/13 00:14:16;;;;;;;;;;;;;;;23.19;49.31;97368.41;623817;227;65086;-60
2023/05/13 00:16:43;;;;;;;;;;;;;;;23.20;50.55;97370.03;624022;227;64862;-59
2023/05/13 00:19:10;;;;;;;;;;;;;;;23.19;49.00;97384.50;624028;227;65024;-59
2023/05/13 00:21:38;;;;;;;;;;;;;;;23.19;50.77;97377.28;623966;227;67230;-60
2023/05/13 00:24:06;;;;;;;;;;;;;;;23.18;48.60;97383.70;623954;227;67108;-60
2023/05/13 00:26:34;;;;;;;;;;;;;;;23.17;48.12;97374.06;623956;227;65113;-60
2023/05/13 00:29:01;;;;;;;;;;;;;;;23.17;49.53;97367.91;624100;227;66810;-60
2023/05/13 00:31:29;;;;;;;;;;;;;;;23.17;50.59;97362.55;623916;227;66931;-60
2023/05/13 00:33:57;;;;;;;;;;;;;;;23.16;48.13;97360.92;623881;227;65128;-60
2023/05/13 00:36:26;;;;;;;;;;;;;;;23.16;50.75;97367.11;624009;227;67476;-60
2023/05/13 00:38:53;;;;;;;;;;;;;;;23.16;50.49;97366.28;623716;227;64888;-60
2023/05/13 00:41:22;;;;;;;;;;;;;;;23.15;48.69;97370.05;618359;227;66410;-59
2023/05/13 00:43:50;;;;;;;;;;;;;;;23.14;49.06;97371.94;623825;227;64839;-59
2023/05/13 00:46:17;;;;;;;;;;;;;;;23.14;50.04;97376.51;623800;227;64871;-59
2023/05/13 00:48:45;;;;;;;;;;;;;;;23.13;49.36;97380.25;623948;227;66049;-60
2023/05/13 00:51:14;;;;;;;;;;;;;;;23.12;50.20;97379.45;623961;227;67736;-59
2023/05/13 00:53:41;;;;;;;;;;;;;;;23.12;48.35;97386.70;623947;227;66867;-59
2023/05/13 00:56:09;;;;;;;;;;;;;;;23.12;48.95;97382.13;623911;227;65255;-59
2023/05/13 00:58:36;;;;;;;;;;;;;;;23.11;50.05;97383.22;623949;227;67342;-59
2023/05/13 01:01:09;;;;;;;;;;;;;;;23.11;48.81;97374.35;623942;227;66817;-59
2023/05/13 01:03:38;;;;;;;;;;;;;;;23.11;50.94;97380.54;623540;227;65049;-59
2023/05/13 01:06:10;;;;;;;;;;;;;;;23.09;48.96;97380.00;623146;227;67147;-59
2023/05/13 01:08:45;;;;;;;;;;;;;;;23.09;49.54;97385.36;623837;227;65672;-60
2023/05/13 01:11:17;;;;;;;;;;;;;;;23.08;48.90;97393.67;622408;227;65054;-59
2023/05/13 01:13:46;;;;;;;;;;;;;;;23.08;49.92;97399.86;619398;229;67233;-59
2023/05/13 01:16:15;;;;;;;;;;;;;;;23.08;49.56;97409.75;619514;229;66878;-59
2023/05/13 01:18:50;;;;;;;;;;;;;;;23.08;48.40;97415.11;619502;228;66056;-59
2023/05/13 01:21:20;;;;;;;;;;;;;;;23.06;48.64;97423.45;619376;228;67941;-59
2023/05/13 01:23:47;;;;;;;;;;;;;;;23.06;49.65;97415.41;619222;228;65864;-59
2023/05/13 01:26:15;;;;;;;;;;;;;;;23.06;48.92;97426.13;619556;229;65035;-59
2023/05/13 01:28:42;;;;;;;;;;;;;;;23.05;48.97;97429.87;619518;229;67829;-59
2023/05/13 01:31:12;;;;;;;;;;;;;;;23.05;50.26;97427.19;619490;229;64787;-60
2023/05/13 01:33:40;;;;;;;;;;;;;;;23.04;49.76;97425.59;619433;229;63839;-59
2023/05/13 01:36:09;;;;;;;;;;;;;;;23.04;50.65;97425.59;619473;229;67834;-59
2023/05/13 01:38:38;;;;;;;;;;;;;;;23.03;49.43;97424.00;619564;229;64588;-59
2023/05/13 01:41:06;;;;;;;;;;;;;;;23.03;51.41;97419.44;614829;229;65132;-59
2023/05/13 01:43:33;;;;;;;;;;;;;;;23.02;48.57;97419.70;619186;229;67332;-59
2023/05/13 01:46:01;;;;;;;;;;;;;;;23.02;50.64;97417.02;619602;229;67184;-59
2023/05/13 01:48:29;;;;;;;;;;;;;;;23.02;49.20;97414.34;619613;229;64811;-59
2023/05/13 01:50:57;;;;;;;;;;;;;;;23.01;49.40;97412.74;619570;229;64784;-59
2023/05/13 01:53:25;;;;;;;;;;;;;;;23.00;50.19;97409.27;619590;229;66787;-59
2023/05/13 01:55:53;;;;;;;;;;;;;;;22.99;49.30;97404.96;619559;229;62912;-59
2023/05/13 01:58:21;;;;;;;;;;;;;;;22.99;48.85;97396.13;619605;229;65544;-59
2023/05/13 02:00:48;;;;;;;;;;;;;;;22.99;49.53;97385.41;619632;229;64637;-59
2023/05/13 02:03:17;;;;;;;;;;;;;;;22.99;51.13;97393.45;619562;229;65749;-59
2023/05/13 02:05:47;;;;;;;;;;;;;;;22.97;50.63;97404.45;619599;229;64529;-59
2023/05/13 02:08:15;;;;;;;;;;;;;;;22.98;51.22;97406.05;619532;229;64662;-59
2023/05/13 02:10:42;;;;;;;;;;;;;;;22.98;49.75;97410.61;619551;228;63080;-59
2023/05/13 02:13:10;;;;;;;;;;;;;;;22.98;50.85;97410.61;619628;229;64926;-59
2023/05/13 02:15:38;;;;;;;;;;;;;;;22.96;50.47;97410.08;619597;229;64485;-59
2023/05/13 02:18:06;;;;;;;;;;;;;;;22.96;50.57;97410.08;619585;229;65056;-59
2023/05/13 02:20:33;;;;;;;;;;;;;;;22.95;49.68;97411.94;619585;229;64817;-59
2023/05/13 02:23:02;;;;;;;;;;;;;;;22.95;49.05;97416.50;619576;229;66902;-59
2023/05/13 02:25:29;;;;;;;;;;;;;;;22.95;49.84;97416.50;619581;229;65881;-59
2023/05/13 02:27:59;;;;;;;;;;;;;;;22.94;50.93;97414.88;619612;229;65768;-59
2023/05/13 02:30:26;;;;;;;;;;;;;;;22.93;49.68;97403.36;619529;229;65411;-59
2023/05/13 02:32:55;;;;;;;;;;;;;;;22.93;49.80;97391.84;619488;229;65203;-59
2023/05/13 02:35:24;;;;;;;;;;;;;;;22.92;49.62;97399.09;619534;229;64976;-59
2023/05/13 02:37:52;;;;;;;;;;;;;;;22.92;49.55;97395.61;619595;229;64864;-59
2023/05/13 02:40:21;;;;;;;;;;;;;;;22.93;50.63;97399.88;619612;229;65629;-59
2023/05/13 02:42:48;;;;;;;;;;;;;;;22.91;49.53;97396.66;619599;229;64573;-59
2023/05/13 02:45:17;;;;;;;;;;;;;;;22.91;50.15;97399.34;619566;229;67510;-59
2023/05/13 02:47:46;;;;;;;;;;;;;;;22.90;49.42;97409.27;614625;229;66066;-59
2023/05/13 02:50:13;;;;;;;;;;;;;;;22.89;49.40;97407.67;619650;229;67239;-59
2023/05/13 02:52:41;;;;;;;;;;;;;;;22.89;50.87;97417.56;619617;229;64494;-59
2023/05/13 02:55:10;;;;;;;;;;;;;;;22.88;50.37;97426.69;619653;229;63030;-59
2023/05/13 02:57:38;;;;;;;;;;;;;;;22.89;51.43;97430.97;619648;229;67034;-59
2023/05/13 03:00:07;;;;;;;;;;;;;;;22.88;50.53;97432.05;614822;229;64565;-59
2023/05/13 03:02:35;;;;;;;;;;;;;;;22.87;49.26;97431.26;619456;229;62731;-59
2023/05/13 03:05:02;;;;;;;;;;;;;;;22.87;50.38;97430.45;619630;229;67977;-59
2023/05/13 03:07:30;;;;;;;;;;;;;;;22.86;50.14;97423.48;619619;229;64659;-59
2023/05/13 03:09:58;;;;;;;;;;;;;;;22.85;50.46;97422.68;619621;229;63697;-59
2023/05/13 03:12:25;;;;;;;;;;;;;;;22.85;51.05;97428.04;622993;227;67069;-59
2023/05/13 03:14:53;;;;;;;;;;;;;;;22.85;49.98;97427.24;624068;227;66986;-59
2023/05/13 03:17:20;;;;;;;;;;;;;;;22.86;50.70;97431.52;624095;227;62972;-59
2023/05/13 03:19:49;;;;;;;;;;;;;;;22.83;50.71;97443.58;624091;227;67650;-59
2023/05/13 03:22:17;;;;;;;;;;;;;;;22.83;49.24;97449.77;624064;227;66989;-59
2023/05/13 03:24:44;;;;;;;;;;;;;;;22.83;50.70;97446.26;624089;227;64832;-59
2023/05/13 03:27:12;;;;;;;;;;;;;;;22.82;49.47;97450.02;624065;227;67660;-59
2023/05/13 03:29:40;;;;;;;;;;;;;;;22.81;49.87;97441.19;624057;227;67975;-59
2023/05/13 03:32:08;;;;;;;;;;;;;;;22.81;51.31;97443.87;624082;227;63730;-59
2023/05/13 03:34:36;;;;;;;;;;;;;;;22.81;50.54;97443.87;624094;227;68093;-59
2023/05/13 03:37:04;;;;;;;;;;;;;;;22.80;49.36;97446.81;624102;227;64898;-59
2023/05/13 03:39:31;;;;;;;;;;;;;;;22.79;49.97;97437.97;624094;227;65005;-59
2023/05/13 03:42:00;;;;;;;;;;;;;;;22.79;50.11;97440.66;624065;227;67317;-59
2023/05/13 03:44:27;;;;;;;;;;;;;;;22.78;49.27;97441.73;624095;227;66613;-59
2023/05/13 03:46:55;;;;;;;;;;;;;;;22.78;51.34;97433.70;624110;227;64861;-59
2023/05/13 03:49:22;;;;;;;;;;;;;;;22.78;50.20;97435.55;624106;227;64531;-59
2023/05/13 03:51:51;;;;;;;;;;;;;;;22.77;50.14;97428.60;624012;227;66139;-59
2023/05/13 03:54:19;;;;;;;;;;;;;;;22.77;51.55;97425.92;624098;227;65378;-59
2023/05/13 03:56:46;;;;;;;;;;;;;;;22.76;50.09;97435.84;624050;227;65119;-59
2023/05/13 03:59:16;;;;;;;;;;;;;;;22.75;50.33;97442.28;624081;227;67028;-59
2023/05/13 04:01:48;;;;;;;;;;;;;;;22.76;51.59;97445.77;624045;227;43638;-59
2023/05/13 04:04:15;;;;;;;;;;;;;;;22.75;50.65;97447.64;624063;227;65074;-59
2023/05/13 04:06:45;;;;;;;;;;;;;;;22.74;50.92;97448.70;623888;227;67020;-59
2023/05/13 04:09:12;;;;;;;;;;;;;;;22.74;49.62;97455.94;624062;227;64957;-59
2023/05/13 04:11:42;;;;;;;;;;;;;;;22.74;52.05;97462.09;624026;227;64259;-59
2023/05/13 04:14:09;;;;;;;;;;;;;;;22.73;51.53;97457.02;624049;227;65643;-59
2023/05/13 04:16:37;;;;;;;;;;;;;;;22.73;50.53;97457.82;624008;227;66200;-59
2023/05/13 04:19:04;;;;;;;;;;;;;;;22.72;49.54;97461.55;624027;227;67403;-59
2023/05/13 04:21:32;;;;;;;;;;;;;;;22.71;50.42;97464.52;624036;227;67225;-59
2023/05/13 04:23:59;;;;;;;;;;;;;;;22.72;51.33;97471.48;624008;227;66071;-59
2023/05/13 04:26:27;;;;;;;;;;;;;;;22.71;51.85;97468.00;618377;227;65997;-59
2023/05/13 04:28:54;;;;;;;;;;;;;;;22.71;50.29;97467.20;624056;227;67048;-59
2023/05/13 04:31:22;;;;;;;;;;;;;;;22.70;51.22;97458.38;624049;227;64941;-59
2023/05/13 04:33:49;;;;;;;;;;;;;;;22.69;50.94;97454.06;624020;227;65908;-59
2023/05/13 04:36:17;;;;;;;;;;;;;;;22.70;51.28;97453.02;624014;227;67837;-59
2023/05/13 04:38:45;;;;;;;;;;;;;;;22.69;50.35;97461.30;624064;227;63043;-59
2023/05/13 04:41:13;;;;;;;;;;;;;;;22.69;51.77;97466.66;624014;227;67834;-59
2023/05/13 04:43:42;;;;;;;;;;;;;;;22.68;50.45;97468.55;624007;227;44275;-59
2023/05/13 04:46:10;;;;;;;;;;;;;;;22.68;51.39;97471.22;619955;227;62508;-59
2023/05/13 04:48:38;;;;;;;;;;;;;;;22.67;50.04;97479.52;621319;227;67717;-59
2023/05/13 04:51:05;;;;;;;;;;;;;;;22.67;51.69;97485.70;624073;227;67051;-59
2023/05/13 04:53:33;;;;;;;;;;;;;;;22.66;50.24;97489.44;624026;227;65759;-59
2023/05/13 04:56:03;;;;;;;;;;;;;;;22.65;50.38;97493.20;624010;227;43855;-59
2023/05/13 04:58:30;;;;;;;;;;;;;;;22.64;51.07;97486.22;624055;227;65524;-59
2023/05/13 05:00:58;;;;;;;;;;;;;;;22.65;50.57;97492.41;624021;227;62741;-59
2023/05/13 05:03:25;;;;;;;;;;;;;;;22.65;52.12;97489.72;624035;227;64745;-59
2023/05/13 05:05:53;;;;;;;;;;;;;;;22.64;50.31;97493.45;623988;227;67184;-59
2023/05/13 05:08:22;;;;;;;;;;;;;;;22.63;51.42;97499.90;623945;227;65613;-60
2023/05/13 05:10:50;;;;;;;;;;;;;;;22.62;51.35;97501.78;623525;227;65725;-58
2023/05/13 05:13:18;;;;;;;;;;;;;;;22.61;51.29;97505.52;619574;229;67713;-59
2023/05/13 05:15:46;;;;;;;;;;;;;;;22.61;51.03;97513.55;619534;229;64841;-59
2023/05/13 05:18:14;;;;;;;;;;;;;;;22.61;51.60;97518.91;619616;229;65052;-59
2023/05/13 05:20:43;;;;;;;;;;;;;;;22.60;51.36;97528.83;619599;229;44842;-59
2023/05/13 05:23:13;;;;;;;;;;;;;;;22.57;50.62;97525.89;619256;228;44828;-59
2023/05/13 05:25:41;;;;;;;;;;;;;;;22.56;49.67;97519.73;619581;229;66797;-59
2023/05/13 05:28:08;;;;;;;;;;;;;;;22.56;50.82;97517.05;615349;228;66928;-59
2023/05/13 05:30:40;;;;;;;;;;;;;;;22.54;50.68;97515.72;619423;229;43970;-60
2023/05/13 05:33:10;;;;;;;;;;;;;;;22.55;50.24;97514.63;619322;228;43631;-59
2023/05/13 05:35:39;;;;;;;;;;;;;;;22.53;50.21;97517.56;619534;229;48719;-59
2023/05/13 05:38:08;;;;;;;;;;;;;;;22.53;51.37;97519.45;619509;229;63827;-59
2023/05/13 05:40:37;;;;;;;;;;;;;;;22.51;50.56;97516.25;619456;229;67660;-59
2023/05/13 05:43:06;;;;;;;;;;;;;;;22.51;49.93;97516.25;619633;228;67438;-59
2023/05/13 05:45:37;;;;;;;;;;;;;;;22.50;50.84;97512.75;619464;229;65201;-59
2023/05/13 05:48:06;;;;;;;;;;;;;;;22.49;50.48;97519.19;619457;229;66828;-60
2023/05/13 05:50:33;;;;;;;;;;;;;;;22.49;50.12;97515.71;619531;229;66702;-60
2023/05/13 05:53:03;;;;;;;;;;;;;;;22.49;50.88;97515.71;619544;229;65109;-60
2023/05/13 05:55:32;;;;;;;;;;;;;;;22.48;51.24;97519.45;619458;229;45335;-60
2023/05/13 05:58:04;;;;;;;;;;;;;;;22.48;51.08;97516.77;619566;229;66764;-60
2023/05/13 06:00:32;;;;;;;;;;;;;;;22.46;49.01;97509.02;619406;229;63061;-60
2023/05/13 06:02:59;;;;;;;;;;;;;;;22.47;51.52;97507.14;619417;229;66879;-60
2023/05/13 06:05:27;;;;;;;;;;;;;;;22.46;51.57;97516.25;619503;228;66634;-60
2023/05/13 06:07:54;;;;;;;;;;;;;;;22.46;49.66;97510.90;619449;229;66255;-60
2023/05/13 06:10:22;;;;;;;;;;;;;;;22.45;50.82;97511.95;619535;229;67496;-60
2023/05/13 06:12:50;;;;;;;;;;;;;;;22.44;50.37;97507.67;623467;227;66758;-60
2023/05/13 06:15:18;;;;;;;;;;;;;;;22.42;51.31;97505.25;624010;227;65109;-60
2023/05/13 06:17:45;;;;;;;;;;;;;;;22.43;51.07;97506.08;624026;227;67201;-60
2023/05/13 06:20:13;;;;;;;;;;;;;;;22.43;51.84;97506.08;623947;227;68197;-60
2023/05/13 06:22:40;;;;;;;;;;;;;;;22.42;50.00;97504.45;624035;227;64939;-60
2023/05/13 06:25:08;;;;;;;;;;;;;;;22.42;51.70;97507.93;623987;227;67055;-60
2023/05/13 06:27:36;;;;;;;;;;;;;;;22.42;51.09;97504.45;624012;227;66976;-60
2023/05/13 06:30:04;;;;;;;;;;;;;;;22.42;51.16;97505.25;624015;227;64837;-60
2023/05/13 06:32:31;;;;;;;;;;;;;;;22.42;51.01;97512.48;623990;227;67249;-60
2023/05/13 06:34:59;;;;;;;;;;;;;;;22.42;52.41;97507.93;623947;227;67083;-60
2023/05/13 06:37:26;;;;;;;;;;;;;;;22.42;51.24;97509.81;624074;227;65016;-60
2023/05/13 06:39:54;;;;;;;;;;;;;;;22.42;51.38;97509.81;623970;227;67002;-60
2023/05/13 06:42:22;;;;;;;;;;;;;;;22.41;51.09;97511.69;624000;227;68023;-60
2023/05/13 06:44:53;;;;;;;;;;;;;;;22.42;51.04;97517.84;623742;227;42249;-60
2023/05/13 06:47:22;;;;;;;;;;;;;;;22.41;50.59;97518.92;623821;227;45964;-60
2023/05/13 06:49:49;;;;;;;;;;;;;;;22.41;49.76;97524.28;624038;227;67107;-60
2023/05/13 06:52:17;;;;;;;;;;;;;;;22.41;52.51;97522.41;623979;227;65154;-60
2023/05/13 06:54:44;;;;;;;;;;;;;;;22.39;49.86;97514.63;624037;227;64991;-60
2023/05/13 06:57:12;;;;;;;;;;;;;;;22.39;52.09;97517.30;624056;227;66831;-60
2023/05/13 06:59:39;;;;;;;;;;;;;;;22.39;51.95;97503.91;624006;227;65052;-60
2023/05/13 07:02:08;;;;;;;;;;;;;;;22.38;49.78;97505.00;624062;227;64886;-60
2023/05/13 07:04:36;;;;;;;;;;;;;;;22.37;49.73;97500.72;624029;227;66884;-60
2023/05/13 07:07:04;;;;;;;;;;;;;;;22.39;50.63;97511.15;623990;227;62940;-60
2023/05/13 07:09:33;;;;;;;;;;;;;;;22.39;52.11;97505.79;624003;227;67253;-60
2023/05/13 07:12:00;;;;;;;;;;;;;;;22.38;50.38;97506.88;621397;227;66853;-60
2023/05/13 07:14:28;;;;;;;;;;;;;;;22.38;52.01;97509.55;619535;229;62767;-60
2023/05/13 07:16:57;;;;;;;;;;;;;;;22.37;51.28;97506.08;619429;229;64859;-60
2023/05/13 07:19:25;;;;;;;;;;;;;;;22.37;51.54;97499.89;619571;228;67036;-60
2023/05/13 07:21:52;;;;;;;;;;;;;;;22.37;50.63;97507.92;619343;229;65118;-60
2023/05/13 07:24:19;;;;;;;;;;;;;;;22.37;51.72;97505.25;619434;229;67077;-60
2023/05/13 07:26:47;;;;;;;;;;;;;;;22.36;51.90;97500.98;619490;228;66786;-60
2023/05/13 07:29:14;;;;;;;;;;;;;;;22.35;51.55;97508.21;619570;229;65409;-60
2023/05/13 07:31:42;;;;;;;;;;;;;;;22.35;49.42;97502.86;619374;229;67238;-60
2023/05/13 07:34:09;;;;;;;;;;;;;;;22.35;49.98;97502.86;619473;229;65375;-60
2023/05/13 07:36:37;;;;;;;;;;;;;;;22.35;52.76;97504.73;619428;229;65036;-60
2023/05/13 07:39:07;;;;;;;;;;;;;;;22.33;50.90;97502.31;619477;229;67221;-60
2023/05/13 07:41:34;;;;;;;;;;;;;;;22.34;50.74;97509.30;619487;228;66836;-60
2023/05/13 07:44:01;;;;;;;;;;;;;;;22.34;52.20;97509.30;619439;229;64910;-60
2023/05/13 07:46:29;;;;;;;;;;;;;;;22.34;51.93;97514.65;619431;229;64855;-60
2023/05/13 07:48:58;;;;;;;;;;;;;;;22.34;52.07;97505.78;619492;228;65015;-60
2023/05/13 07:51:25;;;;;;;;;;;;;;;22.33;51.51;97507.67;619507;229;62901;-60
2023/05/13 07:53:53;;;;;;;;;;;;;;;22.32;49.16;97499.92;619511;229;64195;-60
2023/05/13 07:56:20;;;;;;;;;;;;;;;22.33;52.18;97510.34;619454;229;67009;-60
2023/05/13 07:58:49;;;;;;;;;;;;;;;22.33;52.06;97504.19;619563;229;65062;-60
2023/05/13 08:01:16;;;;;;;;;;;;;;;22.31;50.77;97509.80;619408;229;67480;-60
2023/05/13 08:03:44;;;;;;;;;;;;;;;22.32;52.04;97508.75;619372;229;67032;-60
2023/05/13 08:06:12;;;;;;;;;;;;;;;22.32;52.09;97505.27;619525;229;62904;-60
2023/05/13 08:08:39;;;;;;;;;;;;;;;22.31;51.11;97506.33;619401;229;65007;-60
2023/05/13 08:11:07;;;;;;;;;;;;;;;22.31;53.36;97509.00;619549;228;64879;-60
2023/05/13 08:13:34;;;;;;;;;;;;;;;22.31;52.18;97511.68;619529;229;63087;-60
2023/05/13 08:16:02;;;;;;;;;;;;;;;22.29;50.79;97511.14;619578;229;65052;-60
2023/05/13 08:18:30;;;;;;;;;;;;;;;22.29;52.29;97517.32;619558;229;64974;-60
2023/05/13 08:20:57;;;;;;;;;;;;;;;22.29;52.09;97509.28;619591;228;62915;-60
2023/05/13 08:23:25;;;;;;;;;;;;;;;22.28;51.77;97515.69;619453;229;64970;-60
2023/05/13 08:25:52;;;;;;;;;;;;;;;22.28;51.40;97515.69;619401;229;64956;-60
2023/05/13 08:28:20;;;;;;;;;;;;;;;22.27;51.63;97514.09;619490;229;65045;-60
2023/05/13 08:30:48;;;;;;;;;;;;;;;22.27;51.20;97515.98;619573;228;64955;-59
2023/05/13 08:33:15;;;;;;;;;;;;;;;22.27;52.82;97515.98;619487;228;65849;-59
2023/05/13 08:35:42;;;;;;;;;;;;;;;22.27;53.04;97514.09;619451;229;63793;-59
2023/05/13 08:38:10;;;;;;;;;;;;;;;22.26;51.76;97512.50;619452;228;65156;-59
2023/05/13 08:40:38;;;;;;;;;;;;;;;22.26;52.19;97512.50;619515;229;66749;-59
2023/05/13 08:43:05;;;;;;;;;;;;;;;22.26;52.00;97509.83;619528;229;65049;-59
2023/05/13 08:45:34;;;;;;;;;;;;;;;22.25;51.60;97516.23;619618;228;64571;-59
2023/05/13 08:48:02;;;;;;;;;;;;;;;22.25;51.67;97521.59;619394;229;65404;-59
2023/05/13 08:50:31;;;;;;;;;;;;;;;22.25;51.91;97523.47;619432;229;65101;-59
2023/05/13 08:52:59;;;;;;;;;;;;;;;22.24;51.31;97514.64;619451;229;67256;-59
2023/05/13 08:55:27;;;;;;;;;;;;;;;22.24;51.56;97508.48;619484;229;64970;-59
2023/05/13 08:57:54;;;;;;;;;;;;;;;22.24;52.14;97511.16;619586;229;62993;-59
2023/05/13 09:00:22;;;;;;;;;;;;;;;22.23;52.89;97510.33;619460;229;67055;-59
2023/05/13 09:02:50;;;;;;;;;;;;;;;22.23;52.16;97513.01;619429;229;66920;-59
2023/05/13 09:05:18;;;;;;;;;;;;;;;22.23;52.86;97510.33;619568;229;62895;-59
2023/05/13 09:07:46;;;;;;;;;;;;;;;22.23;52.60;97504.18;619585;228;66780;-59
2023/05/13 09:10:13;;;;;;;;;;;;;;;22.22;51.87;97515.97;619416;229;64952;-59
2023/05/13 09:12:48;;;;;;;;;;;;;;;22.22;52.87;97516.77;619488;228;62904;-59
2023/05/13 09:15:17;;;;;;;;;;;;;;;22.21;52.14;97507.14;619566;229;67465;-59
2023/05/13 09:17:46;;;;;;;;;;;;;;;22.21;51.20;97500.95;619428;229;64876;-59
2023/05/13 09:20:14;;;;;;;;;;;;;;;22.20;51.64;97500.16;619449;229;62559;-59
2023/05/13 09:22:43;;;;;;;;;;;;;;;22.20;50.99;97497.48;619446;229;65057;-59
2023/05/13 09:25:12;;;;;;;;;;;;;;;22.20;52.71;97494.80;619291;228;67095;-59
2023/05/13 09:27:41;;;;;;;;;;;;;;;22.20;52.32;97489.45;619450;229;65052;-59
2023/05/13 09:30:09;;;;;;;;;;;;;;;22.20;52.79;97485.98;619388;229;67275;-59
2023/05/13 09:32:37;;;;;;;;;;;;;;;22.19;51.79;97476.35;619440;229;67045;-59
2023/05/13 09:35:10;;;;;;;;;;;;;;;22.19;52.42;97479.03;619459;228;62864;-59
2023/05/13 09:37:37;;;;;;;;;;;;;;;22.19;51.15;97479.03;619179;227;67360;-59
2023/05/13 09:40:05;;;;;;;;;;;;;;;22.18;52.38;97472.88;619510;228;66966;-59
2023/05/13 09:42:33;;;;;;;;;;;;;;;22.17;52.05;97474.70;619462;229;65207;-59
2023/05/13 09:45:02;;;;;;;;;;;;;;;22.19;52.64;97471.80;619429;229;67212;-59
2023/05/13 09:47:29;;;;;;;;;;;;;;;22.18;52.96;97470.20;619529;229;67782;-59
2023/05/13 09:49:57;;;;;;;;;;;;;;;22.16;52.04;97467.75;619517;228;65202;-59
2023/05/13 09:52:24;;;;;;;;;;;;;;;22.16;51.78;97462.39;619568;229;65051;-59
2023/05/13 09:54:52;;;;;;;;;;;;;;;22.16;53.28;97467.75;619527;229;66605;-59
2023/05/13 09:57:20;;;;;;;;;;;;;;;22.16;52.05;97469.63;619450;229;63844;-59
2023/05/13 09:59:48;;;;;;;;;;;;;;;22.16;52.40;97475.78;619588;229;67030;-60
2023/05/13 10:02:17;;;;;;;;;;;;;;;22.16;52.53;97480.33;619451;228;64884;-60
2023/05/13 10:04:44;;;;;;;;;;;;;;;22.15;52.16;97479.53;619585;229;65069;-59
2023/05/13 10:07:12;;;;;;;;;;;;;;;22.14;52.69;97483.27;619460;228;67172;-59
2023/05/13 10:09:40;;;;;;;;;;;;;;;22.14;51.96;97483.27;619535;229;66839;-59
2023/05/13 10:12:09;;;;;;;;;;;;;;;22.14;51.49;97472.55;619373;228;65058;-59
2023/05/13 10:14:37;;;;;;;;;;;;;;;22.14;53.74;97477.11;619529;229;66908;-59
2023/05/13 10:17:05;;;;;;;;;;;;;;;22.14;53.44;97464.53;619553;229;66976;-58
2023/05/13 10:19:32;;;;;;;;;;;;;;;22.14;52.53;97466.41;619512;229;65128;-58
2023/05/13 10:22:01;;;;;;;;;;;;;;;22.13;52.80;97464.81;619389;229;66899;-58
2023/05/13 10:24:29;;;;;;;;;;;;;;;22.12;52.32;97463.98;619503;229;66933;-58
2023/05/13 10:26:57;;;;;;;;;;;;;;;22.12;51.52;97463.19;619383;228;63084;-58
2023/05/13 10:29:26;;;;;;;;;;;;;;;22.13;51.80;97464.81;619466;229;65332;-58
2023/05/13 10:31:53;;;;;;;;;;;;;;;22.12;53.52;97463.19;619494;229;67142;-58
2023/05/13 10:34:22;;;;;;;;;;;;;;;22.12;51.18;97463.19;619498;229;65122;-58
2023/05/13 10:37:07;;;;;;;;;;;;;;;22.11;53.09;97459.70;619416;229;67989;-58
2023/05/13 10:39:36;;;;;;;;;;;;;;;22.11;52.42;97464.27;619537;229;64860;-60
2023/05/13 10:42:23;;;;;;;;;;;;;;;22.11;53.16;97464.27;619638;228;62941;-60
2023/05/13 10:44:57;;;;;;;;;;;;;;;22.10;53.03;97468.82;618953;229;67081;-60
2023/05/13 10:47:26;;;;;;;;;;;;;;;22.09;52.79;97474.42;619587;229;67170;-61
2023/05/13 10:49:54;;;;;;;;;;;;;;;22.09;53.47;97469.87;619487;229;65121;-60
2023/05/13 10:52:21;;;;;;;;;;;;;;;22.08;51.70;97462.92;619443;229;66974;-60
2023/05/13 10:54:53;;;;;;;;;;;;;;;22.09;53.30;97458.37;619602;229;67043;-60
2023/05/13 10:57:22;;;;;;;;;;;;;;;22.09;53.17;97469.08;617142;229;65040;-60
2023/05/13 11:00:08;;;;;;;;;;;;;;;22.09;53.18;97458.37;619464;228;64834;-60
2023/05/13 11:02:37;;;;;;;;;;;;;;;22.08;53.50;97451.42;619535;229;64947;-60
2023/05/13 11:05:04;;;;;;;;;;;;;;;22.08;53.04;97446.86;619442;229;63116;-60
2023/05/13 11:07:32;;;;;;;;;;;;;;;22.07;52.09;97447.95;619450;228;67474;-61
2023/05/13 11:10:01;;;;;;;;;;;;;;;22.07;52.82;97444.44;619324;229;44675;-58
2023/05/13 11:12:28;;;;;;;;;;;;;;;22.07;52.86;97444.44;619543;228;65044;-58
2023/05/13 11:14:56;;;;;;;;;;;;;;;22.07;53.17;97447.12;619458;229;67231;-58
2023/05/13 11:17:23;;;;;;;;;;;;;;;22.06;53.25;97442.84;619483;228;65259;-58
2023/05/13 11:19:52;;;;;;;;;;;;;;;22.06;52.88;97458.91;619494;229;63812;-58
2023/05/13 11:22:20;;;;;;;;;;;;;;;22.06;51.93;97464.27;619439;229;67221;-58
2023/05/13 11:25:04;;;;;;;;;;;;;;;22.06;52.30;97464.27;619390;229;66982;-58
2023/05/13 11:27:41;;;;;;;;;;;;;;;22.06;53.07;97464.27;619521;229;65075;-58
2023/05/13 11:30:14;;;;;;;;;;;;;;;22.06;53.30;97464.27;619631;229;67230;-59
2023/05/13 11:32:52;;;;;;;;;;;;;;;22.05;52.59;97465.34;619240;228;75468;-59
2023/05/13 11:35:23;;;;;;;;;;;;;;;22.05;51.66;97465.34;619645;228;65064;-58
2023/05/13 11:37:51;;;;;;;;;;;;;;;22.05;53.14;97473.37;619446;229;66948;-59
2023/05/13 11:40:22;;;;;;;;;;;;;;;22.04;52.73;97469.86;619462;228;66991;-59
2023/05/13 11:42:50;;;;;;;;;;;;;;;22.04;53.17;97469.06;619485;229;62652;-59
2023/05/13 11:45:18;;;;;;;;;;;;;;;22.04;53.77;97469.06;619578;229;65250;-59
2023/05/13 11:47:45;;;;;;;;;;;;;;;22.03;53.55;97464.80;619422;229;64877;-59
2023/05/13 11:50:29;;;;;;;;;;;;;;;22.03;51.82;97470.15;619495;229;62963;-59
2023/05/13 11:52:58;;;;;;;;;;;;;;;22.03;52.10;97475.50;619538;229;64924;-59
2023/05/13 11:55:26;;;;;;;;;;;;;;;22.02;51.82;97472.02;619503;229;67020;-59
2023/05/13 11:57:53;;;;;;;;;;;;;;;22.02;52.76;97480.05;619531;229;65129;-59
2023/05/13 12:00:23;;;;;;;;;;;;;;;22.02;53.28;97476.58;619482;229;65049;-59
2023/05/13 12:02:50;;;;;;;;;;;;;;;22.02;53.27;97476.58;619441;229;65745;-59
2023/05/13 12:05:18;;;;;;;;;;;;;;;22.02;53.84;97476.58;619497;229;65052;-59
2023/05/13 12:07:45;;;;;;;;;;;;;;;22.00;52.70;97460.78;619512;229;67218;-59
2023/05/13 12:10:13;;;;;;;;;;;;;;;22.01;52.91;97474.95;619605;228;66943;-59
2023/05/13 12:12:42;;;;;;;;;;;;;;;22.01;53.16;97466.92;619629;228;65058;-59
2023/05/13 12:15:13;;;;;;;;;;;;;;;22.00;52.29;97466.12;619425;229;67347;-59
2023/05/13 12:17:41;;;;;;;;;;;;;;;21.98;52.93;97462.91;619512;229;67000;-59
2023/05/13 12:20:10;;;;;;;;;;;;;;;21.99;53.39;97461.03;619531;229;65024;-59
2023/05/13 12:22:40;;;;;;;;;;;;;;;21.98;52.53;97460.23;619413;229;67429;-59
2023/05/13 12:25:25;;;;;;;;;;;;;;;21.98;53.48;97462.91;616188;229;66969;-59
2023/05/13 12:27:53;;;;;;;;;;;;;;;21.98;53.56;97464.79;619612;229;63765;-59
2023/05/13 12:30:20;;;;;;;;;;;;;;;21.98;52.98;97457.55;619546;229;67269;-58
2023/05/13 12:32:48;;;;;;;;;;;;;;;21.97;52.62;97457.84;619502;229;65249;-58
2023/05/13 12:35:15;;;;;;;;;;;;;;;21.97;52.95;97460.52;619527;229;63842;-58
2023/05/13 12:37:43;;;;;;;;;;;;;;;21.96;53.09;97459.69;619456;229;67071;-58
2023/05/13 12:40:11;;;;;;;;;;;;;;;21.95;53.01;97464.24;619579;229;64929;-59
2023/05/13 12:42:38;;;;;;;;;;;;;;;21.95;52.49;97461.56;619435;229;62940;-58
2023/05/13 12:45:06;;;;;;;;;;;;;;;21.94;53.56;97449.27;619569;229;65008;-58
2023/05/13 12:47:36;;;;;;;;;;;;;;;21.95;52.83;97458.89;619492;228;67008;-58
2023/05/13 12:50:05;;;;;;;;;;;;;;;21.96;53.39;97454.34;616198;229;65038;-58
2023/05/13 12:52:32;;;;;;;;;;;;;;;21.94;53.76;97446.59;619367;229;67037;-58
2023/05/13 12:55:00;;;;;;;;;;;;;;;21.94;52.77;97443.91;619613;229;66959;-58